createdAt,value
2022-08-02T00:01:22.086Z,20.50
2022-08-02T00:04:08.714Z,20.50
2022-08-02T00:06:54.533Z,20.50
2022-08-02T00:09:41.002Z,20.50
2022-08-02T00:12:28.277Z,20.50
2022-08-02T00:15:15.762Z,20.50
2022-08-02T00:18:02.815Z,20.40
2022-08-02T00:20:48.741Z,20.30
2022-08-02T00:24:03.255Z,20.30
2022-08-02T00:26:43.899Z,20.20
2022-08-02T00:29:31.101Z,20.20
2022-08-02T00:32:17.103Z,20.20
2022-08-02T00:35:04.006Z,20.10
2022-08-02T00:37:50.155Z,20.10
2022-08-02T00:40:36.275Z,20.10
2022-08-02T00:43:22.446Z,20.10
2022-08-02T00:46:08.806Z,20.10
2022-08-02T00:48:56.146Z,20.10
2022-08-02T00:51:42.670Z,20.10
2022-08-02T00:54:29.005Z,20.10
2022-08-02T00:57:15.226Z,20.10
2022-08-02T01:00:01.253Z,20.10
2022-08-02T01:02:47.580Z,20.00
2022-08-02T01:05:46.939Z,20.00
2022-08-02T01:08:40.086Z,20.10
2022-08-02T01:11:26.138Z,20.10
2022-08-02T01:14:14.730Z,20.10
2022-08-02T01:17:12.316Z,20.10
2022-08-02T01:20:25.270Z,20.00
2022-08-02T01:23:54.131Z,20.10
2022-08-02T01:26:49.088Z,20.00
2022-08-02T01:29:41.645Z,20.00
2022-08-02T01:32:37.072Z,20.00
2022-08-02T01:35:28.369Z,20.00
2022-08-02T01:38:38.279Z,20.00
2022-08-02T01:41:26.764Z,20.00
2022-08-02T01:44:14.945Z,20.00
2022-08-02T01:47:04.664Z,20.00
2022-08-02T01:49:54.653Z,20.00
2022-08-02T01:52:53.550Z,20.00
2022-08-02T01:55:57.047Z,20.00
2022-08-02T01:58:46.678Z,20.00
2022-08-02T02:01:34.905Z,20.00
2022-08-02T02:04:22.837Z,19.90
2022-08-02T02:07:10.287Z,19.90
2022-08-02T02:09:58.407Z,19.90
2022-08-02T02:12:51.197Z,19.80
2022-08-02T02:15:43.539Z,19.80
2022-08-02T02:18:30.699Z,19.80
2022-08-02T02:21:16.885Z,19.80
2022-08-02T02:24:03.811Z,19.70
2022-08-02T02:26:52.858Z,19.70
2022-08-02T02:29:44.885Z,19.60
2022-08-02T02:32:31.923Z,19.60
2022-08-02T02:35:19.262Z,19.60
2022-08-02T02:38:09.515Z,19.60
2022-08-02T02:41:00.635Z,19.60
2022-08-02T02:43:47.418Z,19.60
2022-08-02T02:46:34.994Z,19.60
2022-08-02T02:49:23.036Z,19.60
2022-08-02T02:52:10.639Z,19.60
2022-08-02T02:54:57.991Z,19.60
2022-08-02T02:57:45.058Z,19.60
2022-08-02T03:00:49.756Z,19.60
2022-08-02T03:03:37.316Z,19.60
2022-08-02T03:06:23.392Z,19.70
2022-08-02T03:09:10.451Z,19.60
2022-08-02T03:11:58.450Z,19.60
2022-08-02T03:14:44.528Z,19.60
2022-08-02T03:17:44.309Z,19.60
2022-08-02T03:20:30.242Z,19.50
2022-08-02T03:23:16.193Z,19.50
2022-08-02T03:26:02.569Z,19.50
2022-08-02T03:28:48.549Z,19.50
2022-08-02T03:31:35.640Z,19.50
2022-08-02T03:34:22.408Z,19.50
2022-08-02T03:37:09.226Z,19.50
2022-08-02T03:39:56.950Z,19.50
2022-08-02T03:42:43.908Z,19.60
2022-08-02T03:45:30.390Z,19.50
2022-08-02T03:48:33.658Z,19.50
2022-08-02T03:51:21.440Z,19.50
2022-08-02T03:54:07.569Z,19.50
2022-08-02T03:56:53.633Z,19.40
2022-08-02T03:59:45.122Z,19.40
2022-08-02T04:02:31.059Z,19.40
2022-08-02T04:05:17.434Z,19.40
2022-08-02T04:08:34.575Z,19.30
2022-08-02T04:11:28.351Z,19.30
2022-08-02T04:14:15.042Z,19.30
2022-08-02T04:17:05.875Z,19.20
2022-08-02T04:19:56.120Z,19.20
2022-08-02T04:23:03.428Z,19.20
2022-08-02T04:25:51.514Z,19.20
2022-08-02T04:28:38.405Z,19.20
2022-08-02T04:31:24.544Z,19.20
2022-08-02T04:34:15.080Z,19.20
2022-08-02T04:37:02.104Z,19.20
2022-08-02T04:39:51.310Z,19.20
2022-08-02T04:42:37.898Z,19.20
2022-08-02T04:45:25.593Z,19.20
2022-08-02T04:48:14.993Z,19.20
2022-08-02T04:51:01.435Z,19.20
2022-08-02T04:53:50.439Z,19.20
2022-08-02T04:56:40.076Z,19.20
2022-08-02T04:59:27.053Z,19.20
2022-08-02T05:02:13.521Z,19.20
2022-08-02T05:04:59.913Z,19.20
2022-08-02T05:07:46.003Z,19.20
2022-08-02T05:10:32.177Z,19.30
2022-08-02T05:13:18.899Z,19.30
2022-08-02T05:16:05.776Z,19.30
2022-08-02T05:18:53.243Z,19.30
2022-08-02T05:21:39.996Z,19.30
2022-08-02T05:24:26.495Z,19.40
2022-08-02T05:27:21.162Z,19.40
2022-08-02T05:30:08.762Z,19.40
2022-08-02T05:32:54.782Z,19.50
2022-08-02T05:35:41.450Z,19.50
2022-08-02T05:38:31.089Z,19.50
2022-08-02T05:41:19.416Z,19.50
2022-08-02T05:44:05.773Z,19.60
2022-08-02T05:46:53.936Z,19.60
2022-08-02T05:49:40.140Z,19.60
2022-08-02T05:52:42.939Z,19.60
2022-08-02T05:55:38.538Z,19.70
2022-08-02T05:58:35.411Z,19.70
2022-08-02T06:01:29.134Z,19.70
2022-08-02T06:04:20.740Z,19.70
2022-08-02T06:07:10.336Z,19.70
2022-08-02T06:09:59.735Z,19.80
2022-08-02T06:13:02.586Z,19.90
2022-08-02T06:15:53.458Z,20.00
2022-08-02T06:18:46.786Z,20.10
2022-08-02T06:22:33.375Z,20.20
2022-08-02T06:24:51.960Z,20.40
2022-08-02T06:27:40.040Z,20.50
2022-08-02T06:30:27.727Z,20.60
2022-08-02T06:33:14.033Z,20.70
2022-08-02T06:36:30.008Z,20.70
2022-08-02T06:39:31.759Z,20.70
2022-08-02T06:42:28.784Z,20.80
2022-08-02T06:45:16.943Z,20.80
2022-08-02T06:48:03.750Z,20.80
2022-08-02T06:50:49.899Z,20.90
2022-08-02T06:53:36.028Z,21.00
2022-08-02T06:56:22.712Z,21.00
2022-08-02T06:59:08.700Z,21.10
2022-08-02T07:01:55.262Z,21.20
2022-08-02T07:04:41.415Z,21.20
2022-08-02T07:07:28.076Z,21.20
2022-08-02T07:10:15.149Z,21.30
2022-08-02T07:13:01.297Z,21.40
2022-08-02T07:15:49.449Z,21.40
2022-08-02T07:18:36.113Z,21.50
2022-08-02T07:21:57.162Z,21.50
2022-08-02T07:24:28.360Z,21.50
2022-08-02T07:27:14.258Z,21.60
2022-08-02T07:30:00.618Z,21.60
2022-08-02T07:32:46.661Z,21.70
2022-08-02T07:35:35.775Z,21.80
2022-08-02T07:38:24.976Z,21.90
2022-08-02T07:41:12.012Z,22.00
2022-08-02T07:43:58.673Z,22.00
2022-08-02T07:46:45.410Z,22.10
2022-08-02T07:49:34.582Z,22.10
2022-08-02T07:52:24.241Z,22.20
2022-08-02T07:55:11.394Z,22.30
2022-08-02T07:58:00.712Z,22.40
2022-08-02T08:00:46.851Z,22.40
2022-08-02T08:03:35.916Z,22.50
2022-08-02T08:06:28.774Z,22.50
2022-08-02T08:09:15.229Z,22.60
2022-08-02T08:12:01.723Z,22.70
2022-08-02T08:14:47.951Z,22.70
2022-08-02T08:17:35.301Z,22.80
2022-08-02T08:20:21.520Z,22.80
2022-08-02T08:23:09.068Z,22.90
2022-08-02T08:25:55.625Z,23.00
2022-08-02T08:28:41.696Z,23.10
2022-08-02T08:31:28.178Z,23.10
2022-08-02T08:34:14.662Z,23.20
2022-08-02T08:37:02.413Z,23.20
2022-08-02T08:39:57.079Z,23.30
2022-08-02T08:42:44.910Z,23.30
2022-08-02T08:45:31.083Z,23.30
2022-08-02T08:48:25.683Z,23.40
2022-08-02T08:51:22.841Z,23.40
2022-08-02T08:54:12.670Z,23.40
2022-08-02T08:56:59.824Z,23.60
2022-08-02T08:59:49.611Z,23.70
2022-08-02T09:02:36.964Z,23.80
2022-08-02T09:05:23.571Z,23.80
2022-08-02T09:08:14.850Z,23.80
2022-08-02T09:11:16.348Z,23.90
2022-08-02T09:14:07.497Z,24.00
2022-08-02T09:16:54.342Z,24.10
2022-08-02T09:19:45.849Z,24.20
2022-08-02T09:22:32.585Z,24.20
2022-08-02T09:25:18.939Z,24.20
2022-08-02T09:28:06.123Z,24.20
2022-08-02T09:30:52.549Z,24.20
2022-08-02T09:33:41.381Z,24.30
2022-08-02T09:36:37.060Z,24.30
2022-08-02T09:39:23.864Z,24.40
2022-08-02T09:42:10.822Z,24.50
2022-08-02T09:45:01.918Z,24.50
2022-08-02T09:47:49.810Z,24.50
2022-08-02T09:50:41.077Z,24.40
2022-08-02T09:53:27.632Z,24.30
2022-08-02T09:56:35.161Z,24.20
2022-08-02T09:59:25.012Z,24.10
2022-08-02T10:02:16.867Z,24.10
2022-08-02T10:05:04.036Z,24.10
2022-08-02T10:07:50.191Z,24.10
2022-08-02T10:10:36.120Z,24.10
2022-08-02T10:13:22.327Z,24.10
2022-08-02T10:16:08.370Z,24.20
2022-08-02T10:18:56.736Z,24.30
2022-08-02T10:22:00.048Z,24.40
2022-08-02T10:24:48.489Z,24.50
2022-08-02T10:28:03.771Z,24.70
2022-08-02T10:30:48.298Z,24.70
2022-08-02T10:33:37.502Z,24.80
2022-08-02T10:36:27.348Z,24.80
2022-08-02T10:39:13.419Z,24.90
2022-08-02T10:41:59.346Z,25.00
2022-08-02T10:44:45.361Z,25.10
2022-08-02T10:47:31.201Z,25.20
2022-08-02T10:50:17.363Z,25.30
2022-08-02T10:53:30.394Z,25.40
2022-08-02T10:56:18.328Z,25.50
2022-08-02T10:59:29.269Z,25.50
2022-08-02T11:02:34.339Z,25.40
2022-08-02T11:05:42.684Z,25.40
2022-08-02T11:08:31.364Z,25.50
2022-08-02T11:11:19.820Z,25.60
2022-08-02T11:14:26.657Z,25.60
2022-08-02T11:17:17.956Z,25.70
2022-08-02T11:20:13.258Z,25.70
2022-08-02T11:23:44.506Z,25.70
2022-08-02T11:26:32.745Z,25.60
2022-08-02T11:29:21.037Z,25.60
2022-08-02T11:32:30.579Z,25.50
2022-08-02T11:35:17.085Z,25.50
2022-08-02T11:38:17.851Z,25.50
2022-08-02T11:41:09.926Z,25.60
2022-08-02T11:43:56.864Z,25.70
2022-08-02T11:46:43.779Z,25.70
2022-08-02T11:49:31.103Z,25.70
2022-08-02T11:52:17.512Z,25.70
2022-08-02T11:55:08.255Z,25.50
2022-08-02T11:58:05.048Z,25.30
2022-08-02T12:00:53.869Z,25.20
2022-08-02T12:03:40.348Z,25.10
2022-08-02T12:06:34.515Z,25.10
2022-08-02T12:09:22.806Z,25.10
2022-08-02T12:12:08.971Z,25.10
2022-08-02T12:14:55.070Z,25.20
2022-08-02T12:17:59.816Z,25.30
2022-08-02T12:20:46.371Z,25.50
2022-08-02T12:23:32.822Z,25.70
2022-08-02T12:26:19.256Z,25.90
2022-08-02T12:29:05.185Z,25.90
2022-08-02T12:31:56.366Z,26.10
2022-08-02T12:34:44.380Z,26.20
2022-08-02T12:37:30.957Z,26.30
2022-08-02T12:40:25.319Z,26.30
2022-08-02T12:43:22.672Z,26.30
2022-08-02T12:46:19.557Z,26.20
2022-08-02T12:49:18.728Z,26.20
2022-08-02T12:52:22.971Z,26.10
2022-08-02T12:55:25.868Z,26.20
2022-08-02T12:58:50.426Z,26.20
2022-08-02T13:01:37.269Z,26.20
2022-08-02T13:04:23.901Z,26.10
2022-08-02T13:07:13.158Z,26.10
2022-08-02T13:10:04.903Z,26.10
2022-08-02T13:12:53.432Z,26.00
2022-08-02T13:15:49.148Z,25.80
2022-08-02T13:18:36.835Z,25.70
2022-08-02T13:21:39.963Z,25.70
2022-08-02T13:24:39.674Z,25.60
2022-08-02T13:27:37.092Z,25.60
2022-08-02T13:30:24.002Z,25.70
2022-08-02T13:33:10.035Z,25.80
2022-08-02T13:35:56.018Z,25.90
2022-08-02T13:38:42.477Z,26.00
2022-08-02T13:41:28.438Z,26.10
2022-08-02T13:44:14.418Z,26.20
2022-08-02T13:47:01.628Z,26.50
2022-08-02T13:49:50.566Z,26.60
2022-08-02T13:52:37.870Z,26.80
2022-08-02T13:55:24.925Z,26.90
2022-08-02T13:58:11.939Z,27.00
2022-08-02T14:00:58.346Z,27.00
2022-08-02T14:04:07.742Z,27.10
2022-08-02T14:06:51.161Z,27.30
2022-08-02T14:09:37.968Z,27.50
2022-08-02T14:12:26.626Z,27.70
2022-08-02T14:15:13.288Z,27.90
2022-08-02T14:18:00.178Z,28.10
2022-08-02T14:20:46.331Z,28.10
2022-08-02T14:23:50.254Z,28.10
2022-08-02T14:26:38.168Z,28.00
2022-08-02T14:29:24.464Z,28.10
2022-08-02T14:32:11.198Z,28.20
2022-08-02T14:34:57.766Z,28.30
2022-08-02T14:37:43.733Z,28.30
2022-08-02T14:40:31.778Z,28.30
2022-08-02T14:43:36.870Z,28.30
2022-08-02T14:46:22.852Z,28.30
2022-08-02T14:49:10.558Z,28.20
2022-08-02T14:51:57.514Z,28.10
2022-08-02T14:54:44.437Z,28.00
2022-08-02T14:57:33.392Z,27.80
2022-08-02T15:00:19.556Z,27.70
2022-08-02T15:03:05.568Z,27.70
2022-08-02T15:05:55.610Z,27.90
2022-08-02T15:08:42.028Z,28.00
2022-08-02T15:11:28.948Z,28.00
2022-08-02T15:14:21.921Z,28.10
2022-08-02T15:17:13.023Z,28.10
2022-08-02T15:20:05.742Z,28.10
2022-08-02T15:23:07.844Z,28.10
2022-08-02T15:25:55.397Z,28.20
2022-08-02T15:28:45.198Z,28.20
2022-08-02T15:31:33.518Z,28.40
2022-08-02T15:34:20.153Z,28.80
2022-08-02T15:37:07.043Z,29.30
2022-08-02T15:39:53.425Z,30.10
2022-08-02T15:42:39.597Z,31.40
2022-08-02T15:45:27.710Z,32.40
2022-08-02T15:48:13.935Z,33.00
2022-08-02T15:51:00.149Z,33.30
2022-08-02T15:53:46.228Z,33.60
2022-08-02T15:56:36.003Z,34.50
2022-08-02T15:59:22.156Z,35.10
2022-08-02T16:02:08.184Z,34.80
2022-08-02T16:04:59.803Z,34.60
2022-08-02T16:07:46.771Z,34.10
2022-08-02T16:10:33.418Z,34.10
2022-08-02T16:13:41.256Z,34.50
2022-08-02T16:16:40.335Z,34.20
2022-08-02T16:19:46.061Z,33.20
2022-08-02T16:22:33.301Z,32.40
2022-08-02T16:25:19.381Z,32.30
2022-08-02T16:28:07.592Z,33.00
2022-08-02T16:31:10.522Z,33.50
2022-08-02T16:33:58.456Z,33.40
2022-08-02T16:36:45.312Z,32.60
2022-08-02T16:39:31.442Z,31.80
2022-08-02T16:42:25.057Z,30.80
2022-08-02T16:45:14.127Z,29.90
2022-08-02T16:48:03.641Z,29.40
2022-08-02T16:50:52.444Z,30.00
2022-08-02T16:54:00.573Z,31.20
2022-08-02T16:56:48.225Z,32.70
2022-08-02T16:59:42.028Z,34.20
2022-08-02T17:02:29.839Z,34.10
2022-08-02T17:05:16.038Z,33.90
2022-08-02T17:08:07.671Z,33.80
2022-08-02T17:11:08.636Z,33.80
2022-08-02T17:13:54.569Z,34.30
2022-08-02T17:16:40.604Z,34.70
2022-08-02T17:19:38.220Z,35.00
2022-08-02T17:22:24.892Z,35.30
2022-08-02T17:25:16.033Z,35.60
2022-08-02T17:28:02.810Z,35.20
2022-08-02T17:30:51.783Z,34.10
2022-08-02T17:33:40.878Z,32.80
2022-08-02T17:36:27.884Z,31.70
2022-08-02T17:39:14.147Z,31.40
2022-08-02T17:42:00.744Z,31.80
2022-08-02T17:44:49.188Z,32.30
2022-08-02T17:47:42.237Z,32.80
2022-08-02T17:50:28.862Z,33.20
2022-08-02T17:53:15.221Z,33.30
2022-08-02T17:56:01.350Z,33.00
2022-08-02T17:58:53.818Z,32.40
2022-08-02T18:01:52.569Z,31.60
2022-08-02T18:04:40.047Z,30.70
2022-08-02T18:07:26.516Z,29.90
2022-08-02T18:10:32.959Z,29.00
2022-08-02T18:13:18.844Z,28.20
2022-08-02T18:16:05.953Z,27.60
2022-08-02T18:19:16.734Z,27.10
2022-08-02T18:22:03.832Z,26.70
2022-08-02T18:24:53.156Z,26.30
2022-08-02T18:27:39.331Z,26.00
2022-08-02T18:30:28.256Z,25.80
2022-08-02T18:33:56.812Z,25.70
2022-08-02T18:36:27.606Z,25.50
2022-08-02T18:39:14.575Z,25.30
2022-08-02T18:42:02.010Z,25.10
2022-08-02T18:44:48.765Z,24.90
2022-08-02T18:47:34.752Z,24.80
2022-08-02T18:50:21.717Z,24.60
2022-08-02T18:53:11.382Z,24.50
2022-08-02T18:56:03.897Z,24.30
2022-08-02T18:58:51.171Z,24.20
2022-08-02T19:01:45.050Z,24.10
2022-08-02T19:04:46.941Z,24.00
2022-08-02T19:07:50.589Z,23.90
2022-08-02T19:10:39.931Z,23.90
2022-08-02T19:13:42.283Z,23.80
2022-08-02T19:16:36.850Z,23.80
2022-08-02T19:19:29.103Z,23.70
2022-08-02T19:22:20.029Z,23.60
2022-08-02T19:25:07.700Z,23.50
2022-08-02T19:28:04.017Z,23.40
2022-08-02T19:30:50.572Z,23.30
2022-08-02T19:34:05.870Z,23.10
2022-08-02T19:36:44.197Z,23.00
2022-08-02T19:39:30.452Z,22.90
2022-08-02T19:42:17.166Z,22.70
2022-08-02T19:45:05.806Z,22.60
2022-08-02T19:47:54.347Z,22.50
2022-08-02T19:50:44.058Z,22.50
2022-08-02T19:53:48.117Z,22.40
2022-08-02T19:56:35.414Z,22.30
2022-08-02T19:59:25.027Z,22.20
2022-08-02T20:02:18.246Z,22.10
2022-08-02T20:05:08.080Z,22.00
2022-08-02T20:08:03.493Z,22.00
2022-08-02T20:10:51.490Z,21.90
2022-08-02T20:16:46.698Z,21.80
2022-08-02T20:19:41.945Z,21.70
2022-08-02T20:22:33.033Z,21.70
2022-08-02T20:25:19.150Z,21.60
2022-08-02T20:28:06.159Z,21.60
2022-08-02T20:30:55.012Z,21.50
2022-08-02T20:33:56.060Z,21.50
2022-08-02T20:36:43.178Z,21.40
2022-08-02T20:39:43.052Z,21.30
2022-08-02T20:42:30.504Z,21.30
2022-08-02T20:45:19.098Z,21.30
2022-08-02T20:48:05.657Z,21.20
2022-08-02T20:54:04.035Z,21.20
2022-08-02T20:56:50.793Z,21.10
2022-08-02T20:59:38.579Z,21.10
2022-08-02T21:02:25.522Z,21.00
2022-08-02T21:05:15.354Z,21.00
2022-08-02T21:08:07.931Z,21.00
2022-08-02T21:11:01.420Z,20.90
2022-08-02T21:14:08.499Z,20.90
2022-08-02T21:16:55.582Z,20.80
2022-08-02T21:19:44.202Z,20.80
2022-08-02T21:22:31.457Z,20.70
2022-08-02T21:25:50.760Z,20.70
2022-08-02T21:28:43.490Z,20.70
2022-08-02T21:31:35.718Z,20.60
2022-08-02T21:34:27.201Z,20.60
2022-08-02T21:37:16.803Z,20.60
2022-08-02T21:40:06.442Z,20.60
2022-08-02T21:42:56.425Z,20.50
2022-08-02T21:45:55.643Z,20.50
2022-08-02T21:48:42.352Z,20.50
2022-08-02T21:51:29.194Z,20.50
2022-08-02T21:54:21.766Z,20.50
2022-08-02T21:57:15.763Z,20.40
2022-08-02T22:00:39.342Z,20.40
2022-08-02T22:03:30.456Z,20.40
2022-08-02T22:06:20.040Z,20.30
2022-08-02T22:09:17.262Z,20.30
2022-08-02T22:12:18.023Z,20.20
2022-08-02T22:15:10.791Z,20.20
2022-08-02T22:18:00.003Z,20.10
2022-08-02T22:20:46.544Z,20.10
2022-08-02T22:23:50.008Z,20.10
2022-08-02T22:26:48.227Z,20.10
2022-08-02T22:29:34.349Z,20.00
2022-08-02T22:32:40.061Z,20.00
2022-08-02T22:35:26.373Z,20.00
2022-08-02T22:38:18.592Z,19.90
2022-08-02T22:41:05.343Z,19.90
2022-08-02T22:43:55.579Z,19.90
2022-08-02T22:46:42.000Z,19.90
2022-08-02T22:49:39.004Z,19.80
2022-08-02T22:52:34.781Z,19.80
2022-08-02T22:55:22.856Z,19.80
2022-08-02T22:58:11.643Z,19.80
2022-08-02T22:58:54.953Z,21.80
2022-08-02T22:59:05.637Z,21.20
2022-08-02T23:01:00.206Z,19.80
2022-08-02T23:03:46.691Z,19.70
2022-08-02T23:06:33.133Z,19.80
2022-08-02T23:09:19.143Z,19.70
2022-08-02T23:12:05.386Z,19.70
2022-08-02T23:14:52.428Z,19.70
2022-08-02T23:17:56.808Z,19.70
2022-08-02T23:20:43.404Z,19.60
2022-08-02T23:23:30.043Z,19.60
2022-08-02T23:26:16.231Z,19.60
2022-08-02T23:29:02.756Z,19.60
2022-08-02T23:31:51.705Z,19.50
2022-08-02T23:34:39.743Z,19.50
2022-08-02T23:37:26.421Z,19.60
2022-08-02T23:40:12.668Z,19.50
2022-08-02T23:42:59.087Z,19.50
2022-08-02T23:45:46.162Z,19.50
2022-08-02T23:48:32.641Z,19.40
2022-08-02T23:51:22.239Z,19.50
2022-08-02T23:54:09.472Z,19.40
2022-08-02T23:56:55.846Z,19.40
2022-08-02T23:59:46.464Z,19.40
